Time,TemperatureF,DewpointF,PressureIn,WindDirection,WindDirectionDegrees,WindSpeedMPH,WindSpeedGustMPH,Humidity,HourlyPrecipIn,Conditions,Clouds,dailyrainin,SoftwareType,DateUTC
2013-08-07 00:01:00,59.0,53.0,30.15,North,0,0.0,0.0,80,0.00,,,0.00,,2013-08-07 04:01:00,
2013-08-07 00:11:00,59.0,53.0,30.15,North,0,0.0,0.0,80,0.00,,,0.00,,2013-08-07 04:11:00,
2013-08-07 00:21:00,59.0,53.0,30.15,North,0,0.0,0.0,80,0.00,,,0.00,,2013-08-07 04:21:00,
2013-08-07 00:33:00,58.0,53.0,30.15,WSW,248,0.0,0.0,82,0.00,,,0.00,,2013-08-07 04:33:00,
2013-08-07 00:43:00,58.0,53.0,30.15,WSW,248,0.0,0.0,82,0.00,,,0.00,,2013-08-07 04:43:00,
2013-08-07 00:52:00,58.0,53.0,30.15,WSW,248,0.0,0.0,82,0.00,,,0.00,,2013-08-07 04:52:00,
2013-08-07 01:02:00,58.0,53.0,30.15,WSW,248,0.0,0.0,83,0.00,,,0.00,,2013-08-07 05:02:00,
2013-08-07 01:11:00,58.0,53.0,30.15,WSW,248,0.0,0.0,83,0.00,,,0.00,,2013-08-07 05:11:00,
2013-08-07 01:22:00,58.0,53.0,30.15,WSW,248,0.0,0.0,83,0.00,,,0.00,,2013-08-07 05:22:00,
2013-08-07 01:32:00,57.0,52.0,30.15,WSW,248,0.0,0.0,83,0.00,,,0.00,,2013-08-07 05:32:00,
2013-08-07 01:43:00,57.0,52.0,30.15,WSW,248,0.0,0.0,83,0.00,,,0.00,,2013-08-07 05:43:00,
2013-08-07 01:52:00,57.0,52.0,30.15,WSW,248,0.0,0.0,83,0.00,,,0.00,,2013-08-07 05:52:00,
2013-08-07 02:02:00,57.0,52.0,30.15,WSW,248,0.0,0.0,83,0.00,,,0.00,,2013-08-07 06:02:00,
2013-08-07 02:11:00,56.0,51.0,30.15,WSW,248,0.0,0.0,84,0.00,,,0.00,,2013-08-07 06:11:00,
2013-08-07 02:22:00,56.0,51.0,30.15,WSW,248,0.0,0.0,84,0.00,,,0.00,,2013-08-07 06:22:00,
2013-08-07 02:32:00,56.0,51.0,30.15,WSW,248,0.0,0.0,84,0.00,,,5.19,,2013-08-07 06:32:00,
2013-08-07 02:43:00,56.0,51.0,30.15,WSW,248,0.0,0.0,84,0.00,,,5.19,,2013-08-07 06:43:00,
2013-08-07 02:52:00,56.0,51.0,30.15,WSW,248,0.0,0.0,84,0.00,,,0.00,,2013-08-07 06:52:00,
2013-08-07 03:01:00,56.0,51.0,30.15,WSW,248,0.0,0.0,84,0.00,,,0.00,,2013-08-07 07:01:00,
2013-08-07 03:12:00,56.0,52.0,30.15,WSW,248,0.0,0.0,85,0.00,,,0.00,,2013-08-07 07:12:00,
2013-08-07 03:22:00,56.0,52.0,30.15,WSW,248,0.0,0.0,85,0.00,,,0.00,,2013-08-07 07:22:00,
2013-08-07 03:33:00,56.0,52.0,30.15,North,0,0.0,0.0,85,0.00,,,0.00,,2013-08-07 07:33:00,
2013-08-07 03:43:00,56.0,52.0,30.15,North,0,0.0,0.0,85,0.00,,,0.00,,2013-08-07 07:43:00,
2013-08-07 03:52:00,56.0,52.0,30.15,WSW,248,0.0,0.0,85,0.00,,,0.00,,2013-08-07 07:52:00,
2013-08-07 04:02:00,56.0,52.0,30.15,WSW,248,0.0,0.0,85,0.00,,,0.00,,2013-08-07 08:02:00,
2013-08-07 04:11:00,56.0,52.0,30.15,WSW,248,0.0,0.0,85,0.00,,,0.00,,2013-08-07 08:11:00,
2013-08-07 04:22:00,56.0,52.0,30.15,WSW,248,0.0,0.0,85,0.00,,,0.00,,2013-08-07 08:22:00,
2013-08-07 04:32:00,56.0,52.0,30.18,WSW,248,0.0,0.0,86,0.00,,,0.00,,2013-08-07 08:32:00,
2013-08-07 04:44:00,56.0,52.0,30.18,WSW,248,0.0,0.0,86,0.00,,,0.00,,2013-08-07 08:44:00,
2013-08-07 04:53:00,55.0,51.0,30.18,WSW,248,0.0,0.0,85,0.00,,,5.19,,2013-08-07 08:53:00,
2013-08-07 05:12:00,55.0,51.0,30.18,North,0,0.0,0.0,86,0.00,,,0.00,,2013-08-07 09:12:00,
2013-08-07 05:22:00,55.0,51.0,30.18,North,0,0.0,0.0,86,0.00,,,0.00,,2013-08-07 09:22:00,
2013-08-07 05:32:00,55.0,51.0,30.18,WSW,248,0.0,0.0,86,0.00,,,0.00,,2013-08-07 09:32:00,
2013-08-07 05:54:00,55.0,51.0,30.18,North,0,0.0,0.0,86,0.00,,,0.00,,2013-08-07 09:54:00,
2013-08-07 06:22:00,55.0,51.0,30.18,North,0,0.0,0.0,86,0.00,,,0.00,,2013-08-07 10:22:00,
2013-08-07 06:32:00,55.0,51.0,30.18,WSW,248,0.0,0.0,86,0.00,,,0.00,,2013-08-07 10:32:00,
2013-08-07 06:43:00,55.0,51.0,30.18,WSW,248,0.0,0.0,86,0.00,,,0.00,,2013-08-07 10:43:00,
2013-08-07 06:52:00,56.0,52.0,30.18,WSW,248,0.0,0.0,87,0.00,,,0.00,,2013-08-07 10:52:00,
2013-08-07 07:01:00,56.0,52.0,30.18,WSW,248,0.0,0.0,87,0.00,,,0.00,,2013-08-07 11:01:00,
2013-08-07 07:11:00,56.0,52.0,30.18,WSW,248,0.0,0.0,87,0.00,,,0.00,,2013-08-07 11:11:00,
2013-08-07 07:22:00,56.0,52.0,30.18,WSW,248,0.0,0.0,87,0.00,,,0.00,,2013-08-07 11:22:00,
2013-08-07 07:32:00,56.0,52.0,30.18,WSW,248,0.0,0.0,87,0.00,,,0.00,,2013-08-07 11:32:00,
2013-08-07 07:53:00,59.0,56.0,30.18,WSW,248,0.0,0.0,89,0.00,,,0.00,,2013-08-07 11:53:00,
2013-08-07 08:02:00,59.0,56.0,30.18,WSW,248,0.0,0.0,89,0.00,,,0.00,,2013-08-07 12:02:00,
2013-08-07 08:11:00,62.0,59.0,30.18,North,0,0.0,0.0,91,0.00,,,0.00,,2013-08-07 12:11:00,
2013-08-07 08:22:00,62.0,59.0,30.18,North,0,0.0,0.0,91,0.00,,,0.00,,2013-08-07 12:22:00,
2013-08-07 08:33:00,65.0,62.0,30.18,WSW,248,0.0,0.0,91,0.00,,,0.00,,2013-08-07 12:33:00,
2013-08-07 08:43:00,65.0,62.0,30.18,WSW,248,0.0,0.0,91,0.00,,,0.00,,2013-08-07 12:43:00,
2013-08-07 08:52:00,67.0,64.0,30.18,WSW,248,0.0,0.0,91,0.00,,,0.00,,2013-08-07 12:52:00,
2013-08-07 09:12:00,68.0,64.0,30.18,WSW,248,0.0,0.0,88,0.00,,,0.00,,2013-08-07 13:12:00,
2013-08-07 09:22:00,68.0,64.0,30.18,WSW,248,0.0,0.0,88,0.00,,,0.00,,2013-08-07 13:22:00,
2013-08-07 09:32:00,69.0,64.0,30.18,WSW,248,0.0,0.0,84,0.00,,,0.00,,2013-08-07 13:32:00,
2013-08-07 09:44:00,69.0,63.0,30.18,WSW,248,0.0,0.0,82,0.00,,,0.00,,2013-08-07 13:44:00,
2013-08-07 09:53:00,70.0,62.0,30.18,SW,225,0.0,0.0,77,0.00,,,0.00,,2013-08-07 13:53:00,
2013-08-07 10:02:00,70.0,62.0,30.18,SW,225,0.0,0.0,75,0.00,,,0.00,,2013-08-07 14:02:00,
2013-08-07 10:12:00,71.0,62.0,30.18,SW,225,0.0,0.0,73,0.00,,,0.00,,2013-08-07 14:12:00,
2013-08-07 10:22:00,72.0,61.0,30.18,SW,225,0.0,0.0,68,0.00,,,0.00,,2013-08-07 14:22:00,
2013-08-07 10:33:00,72.0,60.0,30.18,SW,225,0.0,0.0,65,0.00,,,0.00,,2013-08-07 14:33:00,
2013-08-07 10:43:00,72.0,60.0,30.18,SSE,158,0.0,0.0,67,0.00,,,0.00,,2013-08-07 14:43:00,
2013-08-07 11:02:00,72.0,60.0,30.18,SSE,158,0.0,0.0,67,0.00,,,0.00,,2013-08-07 15:02:00,
2013-08-07 11:12:00,73.0,61.0,30.18,North,0,0.0,0.0,66,0.00,,,5.19,,2013-08-07 15:12:00,
2013-08-07 11:33:00,74.0,60.0,30.18,SSE,158,0.0,0.0,62,0.00,,,0.00,,2013-08-07 15:33:00,
2013-08-07 11:53:00,74.0,61.0,30.18,SE,135,0.0,0.0,63,0.00,,,0.00,,2013-08-07 15:53:00,
2013-08-07 12:02:00,75.0,61.0,30.18,SSE,158,0.0,3.0,61,0.00,,,0.00,,2013-08-07 16:02:00,
2013-08-07 12:11:00,75.0,61.0,30.18,SSE,158,0.0,0.0,61,0.00,,,5.19,,2013-08-07 16:11:00,
2013-08-07 12:43:00,76.0,61.0,30.18,SSE,158,0.0,0.0,60,0.00,,,0.00,,2013-08-07 16:43:00,
2013-08-07 12:53:00,76.0,61.0,30.18,SSE,158,0.0,5.0,59,0.00,,,0.00,,2013-08-07 16:53:00,
2013-08-07 13:02:00,76.0,61.0,30.18,South,180,0.0,9.0,59,0.00,,,0.00,,2013-08-07 17:02:00,
2013-08-07 13:11:00,76.0,61.0,30.18,SSE,158,0.0,6.0,59,0.00,,,0.00,,2013-08-07 17:11:00,
2013-08-07 13:23:00,76.0,60.0,30.18,SSE,158,0.0,7.0,58,0.00,,,5.19,,2013-08-07 17:23:00,
2013-08-07 13:33:00,76.0,61.0,30.18,SE,135,0.0,0.0,60,0.00,,,0.00,,2013-08-07 17:33:00,
2013-08-07 13:43:00,76.0,61.0,30.18,SE,135,0.0,0.0,60,0.00,,,0.00,,2013-08-07 17:43:00,
2013-08-07 14:02:00,77.0,62.0,30.18,SSE,158,3.0,6.0,60,0.00,,,0.00,,2013-08-07 18:02:00,
2013-08-07 14:43:00,77.0,60.0,30.18,North,0,0.0,6.0,55,0.02,,,0.02,,2013-08-07 18:43:00,
2013-08-07 14:52:00,77.0,59.0,30.18,SE,135,0.0,2.0,53,0.02,,,0.02,,2013-08-07 18:52:00,
2013-08-07 15:01:00,78.0,61.0,30.18,SSE,158,0.0,0.0,55,0.02,,,0.02,,2013-08-07 19:01:00,
2013-08-07 15:11:00,78.0,61.0,30.18,North,0,0.0,0.0,55,0.00,,,5.19,,2013-08-07 19:11:00,
2013-08-07 15:22:00,78.0,60.0,30.18,SSE,158,0.0,7.0,54,0.00,,,0.00,,2013-08-07 19:22:00,
2013-08-07 15:32:00,78.0,60.0,30.18,SSE,158,0.0,7.0,54,0.00,,,0.00,,2013-08-07 19:32:00,
2013-08-07 15:44:00,78.0,60.0,30.18,SSE,158,0.0,7.0,54,0.00,,,0.00,,2013-08-07 19:44:00,
2013-08-07 15:52:00,79.0,60.0,30.18,SSE,158,11.0,11.0,52,0.00,,,0.02,,2013-08-07 19:52:00,
2013-08-07 16:02:00,79.0,61.0,30.18,North,0,0.0,5.0,54,0.00,,,0.02,,2013-08-07 20:02:00,
2013-08-07 16:11:00,79.0,59.0,30.18,SSE,158,0.0,6.0,51,0.00,,,0.02,,2013-08-07 20:11:00,
2013-08-07 18:12:00,78.0,56.0,30.15,SE,135,0.0,0.0,47,0.00,,,0.02,,2013-08-07 22:12:00,
2013-08-07 18:30:00,73.0,54.0,30.15,SSE,158,0.0,0.0,52,0.00,,,0.02,,2013-08-07 22:30:00,
2013-08-07 18:43:00,73.0,54.0,30.15,SSE,158,0.0,0.0,52,0.00,,,0.02,,2013-08-07 22:43:00,
2013-08-07 18:52:00,73.0,54.0,30.15,SSE,158,0.0,0.0,52,0.00,,,0.02,,2013-08-07 22:52:00,
2013-08-07 19:01:00,73.0,54.0,30.15,SSE,158,0.0,0.0,52,0.00,,,0.02,,2013-08-07 23:01:00,
2013-08-07 19:11:00,73.0,54.0,30.15,SSE,158,0.0,0.0,52,0.00,,,0.02,,2013-08-07 23:11:00,
2013-08-07 19:22:00,73.0,54.0,30.15,SSE,158,0.0,0.0,52,0.00,,,0.02,,2013-08-07 23:22:00,
2013-08-07 19:43:00,70.0,55.0,30.12,North,0,0.0,0.0,58,0.00,,,0.02,,2013-08-07 23:43:00,
2013-08-07 19:52:00,70.0,55.0,30.12,North,0,0.0,0.0,59,0.00,,,5.19,,2013-08-07 23:52:00,
2013-08-07 20:01:00,70.0,55.0,30.12,North,0,0.0,0.0,59,0.00,,,5.19,,2013-08-08 00:01:00,
2013-08-07 20:11:00,70.0,55.0,30.12,North,0,0.0,0.0,59,0.00,,,5.19,,2013-08-08 00:11:00,
2013-08-07 20:22:00,70.0,55.0,30.12,North,0,0.0,0.0,59,0.00,,,5.19,,2013-08-08 00:22:00,
2013-08-07 20:32:00,70.0,55.0,30.12,North,0,0.0,0.0,59,0.00,,,5.19,,2013-08-08 00:32:00,
2013-08-07 20:43:00,67.0,55.0,30.15,SSE,158,0.0,0.0,65,0.00,,,0.00,,2013-08-08 00:43:00,
2013-08-07 20:53:00,67.0,55.0,30.15,SSE,158,0.0,0.0,65,0.00,,,0.00,,2013-08-08 00:53:00,
2013-08-07 21:02:00,66.0,55.0,30.15,SSE,158,0.0,0.0,67,0.00,,,0.02,,2013-08-08 01:02:00,
2013-08-07 21:11:00,66.0,55.0,30.15,SSE,158,0.0,0.0,67,0.00,,,0.02,,2013-08-08 01:11:00,
2013-08-07 21:22:00,66.0,55.0,30.15,SSE,158,0.0,0.0,67,0.00,,,0.02,,2013-08-08 01:22:00,
2013-08-07 21:32:00,66.0,55.0,30.15,SSE,158,0.0,0.0,67,0.00,,,0.02,,2013-08-08 01:32:00,
2013-08-07 21:43:00,66.0,55.0,30.15,SSE,158,0.0,0.0,67,0.00,,,0.02,,2013-08-08 01:43:00,
2013-08-07 21:52:00,65.0,55.0,30.15,SSE,158,0.0,0.0,69,0.00,,,0.02,,2013-08-08 01:52:00,
2013-08-07 22:02:00,64.0,54.0,30.15,SSE,158,0.0,0.0,70,0.00,,,0.02,,2013-08-08 02:02:00,
2013-08-07 22:22:00,64.0,55.0,30.15,North,0,0.0,0.0,72,0.00,,,0.02,,2013-08-08 02:22:00,
2013-08-07 22:32:00,64.0,55.0,30.15,North,0,0.0,0.0,72,0.00,,,0.02,,2013-08-08 02:32:00,
2013-08-07 22:43:00,64.0,55.0,30.15,SSE,158,0.0,0.0,73,0.00,,,0.02,,2013-08-08 02:43:00,
2013-08-07 22:52:00,64.0,55.0,30.15,SSE,158,0.0,0.0,73,0.00,,,0.02,,2013-08-08 02:52:00,
2013-08-07 23:02:00,64.0,56.0,30.15,SSE,158,0.0,0.0,74,0.00,,,0.02,,2013-08-08 03:02:00,
2013-08-07 23:12:00,63.0,54.0,30.15,SSE,158,0.0,0.0,73,0.00,,,0.02,,2013-08-08 03:12:00,
2013-08-07 23:22:00,63.0,55.0,30.15,SSE,158,0.0,0.0,74,0.00,,,0.02,,2013-08-08 03:22:00,
2013-08-07 23:32:00,63.0,55.0,30.15,North,0,0.0,0.0,74,0.00,,,0.00,,2013-08-08 03:32:00,
2013-08-07 23:43:00,64.0,55.0,30.15,SSE,158,0.0,0.0,73,0.00,,,0.00,,2013-08-08 03:43:00,
2013-08-07 23:52:00,64.0,56.0,30.15,SSE,158,0.0,0.0,74,0.00,,,0.02,,2013-08-08 03:52:00,